sensor_id;sensor_type;location;lat;lon;timestamp;P1;durP1;ratioP1;P2;durP2;ratioP2
46090;SDS011;31826;53.572;10.170;2023-05-10T00:00:53;7.60;;;2.40;;
46090;SDS011;31826;53.572;10.170;2023-05-10T00:03:18;5.93;;;2.60;;
46090;SDS011;31826;53.572;10.170;2023-05-10T00:05:44;5.93;;;2.60;;
46090;SDS011;31826;53.572;10.170;2023-05-10T00:08:10;5.95;;;2.65;;
46090;SDS011;31826;53.572;10.170;2023-05-10T00:10:36;6.60;;;2.67;;
46090;SDS011;31826;53.572;10.170;2023-05-10T00:13:02;7.18;;;2.60;;
46090;SDS011;31826;53.572;10.170;2023-05-10T00:15:28;6.50;;;2.78;;
46090;SDS011;31826;53.572;10.170;2023-05-10T00:17:55;5.43;;;2.50;;
46090;SDS011;31826;53.572;10.170;2023-05-10T00:20:21;5.18;;;2.65;;
46090;SDS011;31826;53.572;10.170;2023-05-10T00:22:47;5.90;;;3.10;;
46090;SDS011;31826;53.572;10.170;2023-05-10T00:25:13;6.63;;;2.85;;
46090;SDS011;31826;53.572;10.170;2023-05-10T00:27:39;4.72;;;2.70;;
46090;SDS011;31826;53.572;10.170;2023-05-10T00:30:04;5.75;;;2.75;;
46090;SDS011;31826;53.572;10.170;2023-05-10T00:32:31;5.78;;;2.60;;
46090;SDS011;31826;53.572;10.170;2023-05-10T00:34:57;6.70;;;2.93;;
46090;SDS011;31826;53.572;10.170;2023-05-10T00:37:23;6.57;;;2.80;;
46090;SDS011;31826;53.572;10.170;2023-05-10T00:39:48;6.43;;;2.70;;
46090;SDS011;31826;53.572;10.170;2023-05-10T00:42:14;6.43;;;2.90;;
46090;SDS011;31826;53.572;10.170;2023-05-10T00:44:40;6.97;;;3.07;;
46090;SDS011;31826;53.572;10.170;2023-05-10T00:47:05;7.17;;;3.17;;
46090;SDS011;31826;53.572;10.170;2023-05-10T00:49:31;7.15;;;2.78;;
46090;SDS011;31826;53.572;10.170;2023-05-10T00:51:57;5.87;;;2.77;;
46090;SDS011;31826;53.572;10.170;2023-05-10T00:54:23;5.70;;;2.63;;
46090;SDS011;31826;53.572;10.170;2023-05-10T00:56:49;5.32;;;2.80;;
46090;SDS011;31826;53.572;10.170;2023-05-10T00:59:16;5.72;;;2.70;;
46090;SDS011;31826;53.572;10.170;2023-05-10T01:01:43;6.47;;;3.10;;
46090;SDS011;31826;53.572;10.170;2023-05-10T01:04:13;5.75;;;3.00;;
46090;SDS011;31826;53.572;10.170;2023-05-10T01:06:39;5.57;;;2.50;;
46090;SDS011;31826;53.572;10.170;2023-05-10T01:09:06;5.43;;;2.75;;
46090;SDS011;31826;53.572;10.170;2023-05-10T01:11:35;5.03;;;2.67;;
46090;SDS011;31826;53.572;10.170;2023-05-10T01:14:02;7.83;;;2.87;;
46090;SDS011;31826;53.572;10.170;2023-05-10T01:16:29;6.70;;;2.88;;
46090;SDS011;31826;53.572;10.170;2023-05-10T01:18:59;5.43;;;3.05;;
46090;SDS011;31826;53.572;10.170;2023-05-10T01:29:38;8.52;;;2.90;;
46090;SDS011;31826;53.572;10.170;2023-05-10T01:37:36;6.18;;;2.70;;
46090;SDS011;31826;53.572;10.170;2023-05-10T01:40:14;6.35;;;2.60;;
46090;SDS011;31826;53.572;10.170;2023-05-10T01:42:58;7.55;;;2.70;;
46090;SDS011;31826;53.572;10.170;2023-05-10T01:45:29;7.65;;;3.08;;
46090;SDS011;31826;53.572;10.170;2023-05-10T01:48:05;5.53;;;2.53;;
46090;SDS011;31826;53.572;10.170;2023-05-10T01:50:34;7.10;;;2.78;;
46090;SDS011;31826;53.572;10.170;2023-05-10T01:53:02;6.88;;;3.05;;
46090;SDS011;31826;53.572;10.170;2023-05-10T01:55:34;7.68;;;2.70;;
46090;SDS011;31826;53.572;10.170;2023-05-10T01:58:09;6.50;;;3.03;;
46090;SDS011;31826;53.572;10.170;2023-05-10T02:00:36;8.18;;;3.25;;
46090;SDS011;31826;53.572;10.170;2023-05-10T02:03:07;6.13;;;2.63;;
46090;SDS011;31826;53.572;10.170;2023-05-10T02:05:35;5.80;;;3.00;;
46090;SDS011;31826;53.572;10.170;2023-05-10T02:08:01;6.10;;;2.92;;
46090;SDS011;31826;53.572;10.170;2023-05-10T02:10:31;5.88;;;2.72;;
46090;SDS011;31826;53.572;10.170;2023-05-10T02:12:59;5.38;;;2.72;;
46090;SDS011;31826;53.572;10.170;2023-05-10T02:15:26;5.45;;;2.75;;
46090;SDS011;31826;53.572;10.170;2023-05-10T02:17:52;6.10;;;2.77;;
46090;SDS011;31826;53.572;10.170;2023-05-10T02:20:20;9.25;;;2.80;;
46090;SDS011;31826;53.572;10.170;2023-05-10T02:22:51;7.80;;;2.88;;
46090;SDS011;31826;53.572;10.170;2023-05-10T02:25:19;5.50;;;2.63;;
46090;SDS011;31826;53.572;10.170;2023-05-10T02:27:47;6.50;;;3.03;;
46090;SDS011;31826;53.572;10.170;2023-05-10T02:30:13;8.77;;;3.17;;
46090;SDS011;31826;53.572;10.170;2023-05-10T02:32:40;6.15;;;2.88;;
46090;SDS011;31826;53.572;10.170;2023-05-10T02:35:07;7.50;;;2.80;;
46090;SDS011;31826;53.572;10.170;2023-05-10T02:37:35;5.40;;;2.80;;
46090;SDS011;31826;53.572;10.170;2023-05-10T02:40:02;7.88;;;3.17;;
46090;SDS011;31826;53.572;10.170;2023-05-10T02:42:31;6.67;;;3.10;;
46090;SDS011;31826;53.572;10.170;2023-05-10T02:45:00;7.95;;;3.22;;
46090;SDS011;31826;53.572;10.170;2023-05-10T02:47:28;7.32;;;3.05;;
46090;SDS011;31826;53.572;10.170;2023-05-10T02:49:54;5.63;;;2.90;;
46090;SDS011;31826;53.572;10.170;2023-05-10T02:52:24;7.60;;;2.75;;
46090;SDS011;31826;53.572;10.170;2023-05-10T02:54:54;5.75;;;2.80;;
46090;SDS011;31826;53.572;10.170;2023-05-10T02:57:26;6.60;;;3.00;;
46090;SDS011;31826;53.572;10.170;2023-05-10T02:59:54;7.10;;;3.30;;
46090;SDS011;31826;53.572;10.170;2023-05-10T03:02:20;5.22;;;2.95;;
46090;SDS011;31826;53.572;10.170;2023-05-10T03:04:46;6.18;;;2.63;;
46090;SDS011;31826;53.572;10.170;2023-05-10T03:07:12;4.80;;;2.70;;
46090;SDS011;31826;53.572;10.170;2023-05-10T03:09:38;8.18;;;3.00;;
46090;SDS011;31826;53.572;10.170;2023-05-10T03:14:53;5.75;;;2.80;;
46090;SDS011;31826;53.572;10.170;2023-05-10T03:20:11;5.97;;;3.10;;
46090;SDS011;31826;53.572;10.170;2023-05-10T03:22:46;8.07;;;2.97;;
46090;SDS011;31826;53.572;10.170;2023-05-10T03:25:15;5.18;;;2.92;;
46090;SDS011;31826;53.572;10.170;2023-05-10T03:27:42;6.18;;;3.10;;
46090;SDS011;31826;53.572;10.170;2023-05-10T03:30:10;8.25;;;2.90;;
46090;SDS011;31826;53.572;10.170;2023-05-10T03:32:37;6.07;;;3.22;;
46090;SDS011;31826;53.572;10.170;2023-05-10T03:35:10;5.97;;;3.00;;
46090;SDS011;31826;53.572;10.170;2023-05-10T03:37:37;7.22;;;3.05;;
46090;SDS011;31826;53.572;10.170;2023-05-10T03:40:03;7.67;;;3.30;;
46090;SDS011;31826;53.572;10.170;2023-05-10T03:42:29;5.38;;;2.90;;
46090;SDS011;31826;53.572;10.170;2023-05-10T03:44:55;6.65;;;3.25;;
46090;SDS011;31826;53.572;10.170;2023-05-10T03:47:21;7.25;;;3.20;;
46090;SDS011;31826;53.572;10.170;2023-05-10T03:49:47;7.80;;;3.15;;
46090;SDS011;31826;53.572;10.170;2023-05-10T03:52:12;5.32;;;2.88;;
46090;SDS011;31826;53.572;10.170;2023-05-10T03:54:38;6.43;;;3.25;;
46090;SDS011;31826;53.572;10.170;2023-05-10T03:57:04;5.78;;;2.83;;
46090;SDS011;31826;53.572;10.170;2023-05-10T03:59:29;7.25;;;3.05;;
46090;SDS011;31826;53.572;10.170;2023-05-10T04:01:55;6.85;;;3.13;;
46090;SDS011;31826;53.572;10.170;2023-05-10T04:04:21;5.78;;;2.95;;
46090;SDS011;31826;53.572;10.170;2023-05-10T04:06:48;6.32;;;3.05;;
46090;SDS011;31826;53.572;10.170;2023-05-10T04:09:14;7.20;;;3.15;;
46090;SDS011;31826;53.572;10.170;2023-05-10T04:11:40;7.05;;;3.38;;
46090;SDS011;31826;53.572;10.170;2023-05-10T04:14:05;7.00;;;3.10;;
46090;SDS011;31826;53.572;10.170;2023-05-10T04:16:31;6.70;;;3.20;;
46090;SDS011;31826;53.572;10.170;2023-05-10T04:18:56;7.03;;;3.05;;
46090;SDS011;31826;53.572;10.170;2023-05-10T04:21:22;5.57;;;3.00;;
46090;SDS011;31826;53.572;10.170;2023-05-10T04:23:48;6.30;;;3.00;;
46090;SDS011;31826;53.572;10.170;2023-05-10T04:26:13;9.37;;;3.20;;
46090;SDS011;31826;53.572;10.170;2023-05-10T04:28:40;7.78;;;3.35;;
46090;SDS011;31826;53.572;10.170;2023-05-10T04:31:06;6.77;;;3.20;;
46090;SDS011;31826;53.572;10.170;2023-05-10T04:33:33;6.28;;;2.92;;
46090;SDS011;31826;53.572;10.170;2023-05-10T04:35:59;7.07;;;3.20;;
46090;SDS011;31826;53.572;10.170;2023-05-10T04:38:25;7.47;;;3.13;;
46090;SDS011;31826;53.572;10.170;2023-05-10T04:40:51;7.63;;;3.23;;
46090;SDS011;31826;53.572;10.170;2023-05-10T04:43:17;5.55;;;2.85;;
46090;SDS011;31826;53.572;10.170;2023-05-10T04:45:43;8.65;;;2.90;;
46090;SDS011;31826;53.572;10.170;2023-05-10T04:48:09;6.33;;;3.00;;
46090;SDS011;31826;53.572;10.170;2023-05-10T04:50:34;7.50;;;3.40;;
46090;SDS011;31826;53.572;10.170;2023-05-10T04:53:00;8.13;;;3.13;;
46090;SDS011;31826;53.572;10.170;2023-05-10T04:55:26;7.50;;;3.10;;
46090;SDS011;31826;53.572;10.170;2023-05-10T04:57:52;7.00;;;3.20;;
46090;SDS011;31826;53.572;10.170;2023-05-10T05:00:20;7.88;;;3.40;;
46090;SDS011;31826;53.572;10.170;2023-05-10T05:02:46;6.77;;;3.37;;
46090;SDS011;31826;53.572;10.170;2023-05-10T05:05:12;7.07;;;3.30;;
46090;SDS011;31826;53.572;10.170;2023-05-10T05:07:37;6.82;;;3.08;;
46090;SDS011;31826;53.572;10.170;2023-05-10T05:10:04;9.48;;;3.33;;
46090;SDS011;31826;53.572;10.170;2023-05-10T05:12:33;7.40;;;3.13;;
46090;SDS011;31826;53.572;10.170;2023-05-10T05:14:59;8.13;;;3.20;;
46090;SDS011;31826;53.572;10.170;2023-05-10T05:17:25;6.50;;;3.30;;
46090;SDS011;31826;53.572;10.170;2023-05-10T05:19:51;7.28;;;3.33;;
46090;SDS011;31826;53.572;10.170;2023-05-10T05:22:17;5.33;;;3.00;;
46090;SDS011;31826;53.572;10.170;2023-05-10T05:24:44;6.57;;;3.33;;
46090;SDS011;31826;53.572;10.170;2023-05-10T05:27:10;8.15;;;3.20;;
46090;SDS011;31826;53.572;10.170;2023-05-10T05:29:36;8.00;;;3.20;;
46090;SDS011;31826;53.572;10.170;2023-05-10T05:32:02;7.73;;;3.30;;
46090;SDS011;31826;53.572;10.170;2023-05-10T05:34:28;7.50;;;3.25;;
46090;SDS011;31826;53.572;10.170;2023-05-10T05:36:53;6.40;;;3.10;;
46090;SDS011;31826;53.572;10.170;2023-05-10T05:39:19;7.53;;;3.60;;
46090;SDS011;31826;53.572;10.170;2023-05-10T05:41:45;7.55;;;3.33;;
46090;SDS011;31826;53.572;10.170;2023-05-10T05:44:11;6.23;;;3.00;;
46090;SDS011;31826;53.572;10.170;2023-05-10T05:46:36;9.17;;;4.07;;
46090;SDS011;31826;53.572;10.170;2023-05-10T05:49:03;6.18;;;3.22;;
46090;SDS011;31826;53.572;10.170;2023-05-10T05:51:28;6.07;;;2.80;;
46090;SDS011;31826;53.572;10.170;2023-05-10T05:53:54;7.13;;;3.57;;
46090;SDS011;31826;53.572;10.170;2023-05-10T05:56:20;6.75;;;3.28;;
46090;SDS011;31826;53.572;10.170;2023-05-10T05:58:49;5.43;;;3.20;;
46090;SDS011;31826;53.572;10.170;2023-05-10T06:01:15;6.80;;;3.33;;
46090;SDS011;31826;53.572;10.170;2023-05-10T06:03:41;7.05;;;3.17;;
46090;SDS011;31826;53.572;10.170;2023-05-10T06:06:07;7.33;;;3.20;;
46090;SDS011;31826;53.572;10.170;2023-05-10T06:08:33;6.80;;;3.20;;
46090;SDS011;31826;53.572;10.170;2023-05-10T06:10:59;8.20;;;3.70;;
46090;SDS011;31826;53.572;10.170;2023-05-10T06:13:25;7.22;;;3.08;;
46090;SDS011;31826;53.572;10.170;2023-05-10T06:15:56;8.43;;;3.13;;
46090;SDS011;31826;53.572;10.170;2023-05-10T06:18:25;8.80;;;3.50;;
46090;SDS011;31826;53.572;10.170;2023-05-10T06:20:51;6.07;;;3.03;;
46090;SDS011;31826;53.572;10.170;2023-05-10T06:23:16;8.30;;;3.27;;
46090;SDS011;31826;53.572;10.170;2023-05-10T06:25:42;5.50;;;2.97;;
46090;SDS011;31826;53.572;10.170;2023-05-10T06:28:08;9.13;;;3.50;;
46090;SDS011;31826;53.572;10.170;2023-05-10T06:30:35;8.23;;;3.40;;
46090;SDS011;31826;53.572;10.170;2023-05-10T06:33:01;6.28;;;2.90;;
46090;SDS011;31826;53.572;10.170;2023-05-10T06:35:27;5.75;;;2.83;;
46090;SDS011;31826;53.572;10.170;2023-05-10T06:37:53;5.93;;;3.15;;
46090;SDS011;31826;53.572;10.170;2023-05-10T06:40:19;7.37;;;3.07;;
46090;SDS011;31826;53.572;10.170;2023-05-10T06:42:45;5.80;;;3.20;;
46090;SDS011;31826;53.572;10.170;2023-05-10T06:45:11;7.15;;;3.22;;
46090;SDS011;31826;53.572;10.170;2023-05-10T06:47:37;6.40;;;3.20;;
46090;SDS011;31826;53.572;10.170;2023-05-10T06:50:03;6.10;;;3.20;;
46090;SDS011;31826;53.572;10.170;2023-05-10T06:52:29;9.57;;;2.87;;
46090;SDS011;31826;53.572;10.170;2023-05-10T06:54:55;5.73;;;3.20;;
46090;SDS011;31826;53.572;10.170;2023-05-10T06:57:20;8.33;;;3.33;;
46090;SDS011;31826;53.572;10.170;2023-05-10T06:59:46;7.38;;;3.13;;
46090;SDS011;31826;53.572;10.170;2023-05-10T07:02:12;7.43;;;3.50;;
46090;SDS011;31826;53.572;10.170;2023-05-10T07:04:39;6.20;;;3.00;;
46090;SDS011;31826;53.572;10.170;2023-05-10T07:07:05;6.47;;;3.30;;
46090;SDS011;31826;53.572;10.170;2023-05-10T07:09:31;7.27;;;3.20;;
46090;SDS011;31826;53.572;10.170;2023-05-10T07:14:25;5.80;;;3.10;;
46090;SDS011;31826;53.572;10.170;2023-05-10T07:16:51;6.13;;;3.00;;
46090;SDS011;31826;53.572;10.170;2023-05-10T07:19:17;6.47;;;3.27;;
46090;SDS011;31826;53.572;10.170;2023-05-10T07:21:43;10.68;;;3.20;;
46090;SDS011;31826;53.572;10.170;2023-05-10T07:24:09;7.38;;;2.88;;
46090;SDS011;31826;53.572;10.170;2023-05-10T07:26:35;8.27;;;3.00;;
46090;SDS011;31826;53.572;10.170;2023-05-10T07:29:00;6.60;;;3.05;;
46090;SDS011;31826;53.572;10.170;2023-05-10T07:31:27;6.10;;;3.10;;
46090;SDS011;31826;53.572;10.170;2023-05-10T07:33:53;5.83;;;3.07;;
46090;SDS011;31826;53.572;10.170;2023-05-10T07:36:18;5.80;;;3.05;;
46090;SDS011;31826;53.572;10.170;2023-05-10T07:38:44;5.72;;;2.85;;
46090;SDS011;31826;53.572;10.170;2023-05-10T07:41:11;6.28;;;3.00;;
46090;SDS011;31826;53.572;10.170;2023-05-10T07:43:37;7.43;;;3.25;;
46090;SDS011;31826;53.572;10.170;2023-05-10T07:46:03;7.00;;;3.08;;
46090;SDS011;31826;53.572;10.170;2023-05-10T07:48:28;6.07;;;3.03;;
46090;SDS011;31826;53.572;10.170;2023-05-10T07:50:54;7.18;;;3.20;;
46090;SDS011;31826;53.572;10.170;2023-05-10T07:53:20;8.05;;;3.20;;
46090;SDS011;31826;53.572;10.170;2023-05-10T07:55:53;6.38;;;3.10;;
46090;SDS011;31826;53.572;10.170;2023-05-10T07:58:22;5.60;;;3.00;;
46090;SDS011;31826;53.572;10.170;2023-05-10T08:00:48;5.95;;;3.03;;
46090;SDS011;31826;53.572;10.170;2023-05-10T08:03:14;8.38;;;3.08;;
46090;SDS011;31826;53.572;10.170;2023-05-10T08:05:40;9.93;;;3.78;;
46090;SDS011;31826;53.572;10.170;2023-05-10T08:08:06;6.40;;;2.90;;
46090;SDS011;31826;53.572;10.170;2023-05-10T08:10:32;6.10;;;3.10;;
46090;SDS011;31826;53.572;10.170;2023-05-10T08:12:57;6.10;;;2.88;;
46090;SDS011;31826;53.572;10.170;2023-05-10T08:15:23;8.35;;;3.15;;
46090;SDS011;31826;53.572;10.170;2023-05-10T08:17:51;12.30;;;3.30;;
46090;SDS011;31826;53.572;10.170;2023-05-10T08:20:17;8.10;;;3.47;;
46090;SDS011;31826;53.572;10.170;2023-05-10T08:22:47;5.80;;;2.90;;
46090;SDS011;31826;53.572;10.170;2023-05-10T08:25:12;10.13;;;3.20;;
46090;SDS011;31826;53.572;10.170;2023-05-10T08:27:38;9.00;;;2.90;;
46090;SDS011;31826;53.572;10.170;2023-05-10T08:30:04;6.60;;;2.93;;
46090;SDS011;31826;53.572;10.170;2023-05-10T08:32:30;6.10;;;3.13;;
46090;SDS011;31826;53.572;10.170;2023-05-10T08:34:56;6.10;;;3.00;;
46090;SDS011;31826;53.572;10.170;2023-05-10T08:37:23;6.78;;;3.03;;
46090;SDS011;31826;53.572;10.170;2023-05-10T08:39:49;6.10;;;3.03;;
46090;SDS011;31826;53.572;10.170;2023-05-10T08:42:16;5.88;;;3.40;;
46090;SDS011;31826;53.572;10.170;2023-05-10T08:44:45;7.75;;;3.20;;
46090;SDS011;31826;53.572;10.170;2023-05-10T08:47:13;7.20;;;3.25;;
46090;SDS011;31826;53.572;10.170;2023-05-10T08:49:41;5.85;;;3.03;;
46090;SDS011;31826;53.572;10.170;2023-05-10T08:52:08;7.38;;;3.15;;
46090;SDS011;31826;53.572;10.170;2023-05-10T08:54:38;6.07;;;2.88;;
46090;SDS011;31826;53.572;10.170;2023-05-10T08:57:04;7.45;;;3.20;;
46090;SDS011;31826;53.572;10.170;2023-05-10T08:59:29;6.72;;;3.03;;
46090;SDS011;31826;53.572;10.170;2023-05-10T09:01:58;6.13;;;3.27;;
46090;SDS011;31826;53.572;10.170;2023-05-10T09:04:25;7.07;;;3.40;;
46090;SDS011;31826;53.572;10.170;2023-05-10T09:06:51;6.65;;;3.33;;
46090;SDS011;31826;53.572;10.170;2023-05-10T09:09:17;8.30;;;3.37;;
46090;SDS011;31826;53.572;10.170;2023-05-10T09:11:44;7.03;;;2.95;;
46090;SDS011;31826;53.572;10.170;2023-05-10T09:14:10;7.68;;;3.30;;
46090;SDS011;31826;53.572;10.170;2023-05-10T09:16:38;7.65;;;3.05;;
46090;SDS011;31826;53.572;10.170;2023-05-10T09:19:04;6.20;;;3.10;;
46090;SDS011;31826;53.572;10.170;2023-05-10T09:21:32;6.93;;;3.10;;
46090;SDS011;31826;53.572;10.170;2023-05-10T09:24:02;7.15;;;3.40;;
46090;SDS011;31826;53.572;10.170;2023-05-10T09:26:29;11.25;;;4.03;;
46090;SDS011;31826;53.572;10.170;2023-05-10T09:28:56;6.85;;;3.55;;
46090;SDS011;31826;53.572;10.170;2023-05-10T09:31:23;7.97;;;3.97;;
46090;SDS011;31826;53.572;10.170;2023-05-10T09:33:52;8.80;;;4.40;;
46090;SDS011;31826;53.572;10.170;2023-05-10T09:36:18;6.50;;;3.30;;
46090;SDS011;31826;53.572;10.170;2023-05-10T09:38:45;6.90;;;3.20;;
46090;SDS011;31826;53.572;10.170;2023-05-10T09:41:15;5.35;;;3.05;;
46090;SDS011;31826;53.572;10.170;2023-05-10T09:43:45;7.20;;;3.40;;
46090;SDS011;31826;53.572;10.170;2023-05-10T09:46:11;8.52;;;3.63;;
46090;SDS011;31826;53.572;10.170;2023-05-10T09:48:44;7.60;;;3.17;;
46090;SDS011;31826;53.572;10.170;2023-05-10T09:51:18;10.60;;;4.97;;
46090;SDS011;31826;53.572;10.170;2023-05-10T09:53:47;7.13;;;3.33;;
46090;SDS011;31826;53.572;10.170;2023-05-10T09:56:32;6.25;;;3.35;;
46090;SDS011;31826;53.572;10.170;2023-05-10T09:59:03;6.73;;;3.47;;
46090;SDS011;31826;53.572;10.170;2023-05-10T10:01:29;8.25;;;3.17;;
46090;SDS011;31826;53.572;10.170;2023-05-10T10:03:55;7.00;;;3.40;;
46090;SDS011;31826;53.572;10.170;2023-05-10T10:06:23;7.38;;;3.42;;
46090;SDS011;31826;53.572;10.170;2023-05-10T10:08:49;7.30;;;3.50;;
46090;SDS011;31826;53.572;10.170;2023-05-10T10:11:16;7.28;;;3.60;;
46090;SDS011;31826;53.572;10.170;2023-05-10T10:13:42;11.10;;;3.75;;
46090;SDS011;31826;53.572;10.170;2023-05-10T10:16:08;6.43;;;3.50;;
46090;SDS011;31826;53.572;10.170;2023-05-10T10:18:35;11.32;;;4.40;;
46090;SDS011;31826;53.572;10.170;2023-05-10T10:21:05;10.48;;;3.78;;
46090;SDS011;31826;53.572;10.170;2023-05-10T10:23:36;7.57;;;3.97;;
46090;SDS011;31826;53.572;10.170;2023-05-10T10:26:03;12.45;;;5.00;;
46090;SDS011;31826;53.572;10.170;2023-05-10T10:31:52;9.52;;;4.35;;
46090;SDS011;31826;53.572;10.170;2023-05-10T10:34:30;10.85;;;4.90;;
46090;SDS011;31826;53.572;10.170;2023-05-10T10:36:57;11.38;;;5.00;;
46090;SDS011;31826;53.572;10.170;2023-05-10T10:39:28;9.55;;;4.80;;
46090;SDS011;31826;53.572;10.170;2023-05-10T10:41:56;10.57;;;5.45;;
46090;SDS011;31826;53.572;10.170;2023-05-10T10:47:08;12.00;;;5.15;;
46090;SDS011;31826;53.572;10.170;2023-05-10T10:55:01;10.07;;;5.22;;
46090;SDS011;31826;53.572;10.170;2023-05-10T10:57:55;11.07;;;5.65;;
46090;SDS011;31826;53.572;10.170;2023-05-10T11:00:31;13.33;;;7.03;;
46090;SDS011;31826;53.572;10.170;2023-05-10T11:02:59;12.07;;;5.78;;
46090;SDS011;31826;53.572;10.170;2023-05-10T11:05:39;11.47;;;6.27;;
46090;SDS011;31826;53.572;10.170;2023-05-10T11:08:27;14.07;;;7.00;;
46090;SDS011;31826;53.572;10.170;2023-05-10T11:11:03;10.77;;;6.10;;
46090;SDS011;31826;53.572;10.170;2023-05-10T11:13:33;11.80;;;5.68;;
46090;SDS011;31826;53.572;10.170;2023-05-10T11:16:16;11.10;;;5.22;;
46090;SDS011;31826;53.572;10.170;2023-05-10T11:21:45;10.90;;;5.43;;
46090;SDS011;31826;53.572;10.170;2023-05-10T11:24:13;10.82;;;5.45;;
46090;SDS011;31826;53.572;10.170;2023-05-10T11:26:40;10.63;;;5.40;;
46090;SDS011;31826;53.572;10.170;2023-05-10T11:29:07;11.48;;;5.85;;
46090;SDS011;31826;53.572;10.170;2023-05-10T11:31:33;10.55;;;5.20;;
46090;SDS011;31826;53.572;10.170;2023-05-10T11:33:59;11.73;;;5.45;;
46090;SDS011;31826;53.572;10.170;2023-05-10T11:36:29;10.07;;;5.65;;
46090;SDS011;31826;53.572;10.170;2023-05-10T11:38:58;10.47;;;5.50;;
46090;SDS011;31826;53.572;10.170;2023-05-10T11:41:24;10.63;;;5.70;;
46090;SDS011;31826;53.572;10.170;2023-05-10T11:43:51;10.45;;;5.85;;
46090;SDS011;31826;53.572;10.170;2023-05-10T11:46:22;12.20;;;6.30;;
46090;SDS011;31826;53.572;10.170;2023-05-10T11:48:49;11.18;;;6.03;;
46090;SDS011;31826;53.572;10.170;2023-05-10T11:51:23;11.50;;;6.22;;
46090;SDS011;31826;53.572;10.170;2023-05-10T11:53:50;11.05;;;5.50;;
46090;SDS011;31826;53.572;10.170;2023-05-10T11:56:18;10.32;;;5.57;;
46090;SDS011;31826;53.572;10.170;2023-05-10T11:58:45;10.43;;;5.97;;
46090;SDS011;31826;53.572;10.170;2023-05-10T12:01:21;12.25;;;5.57;;
46090;SDS011;31826;53.572;10.170;2023-05-10T12:03:48;12.38;;;5.80;;
46090;SDS011;31826;53.572;10.170;2023-05-10T12:06:15;13.17;;;6.47;;
46090;SDS011;31826;53.572;10.170;2023-05-10T12:08:44;13.90;;;6.47;;
46090;SDS011;31826;53.572;10.170;2023-05-10T12:11:11;12.88;;;6.55;;
46090;SDS011;31826;53.572;10.170;2023-05-10T12:13:42;10.77;;;5.53;;
46090;SDS011;31826;53.572;10.170;2023-05-10T12:18:44;13.27;;;6.63;;
46090;SDS011;31826;53.572;10.170;2023-05-10T12:21:10;10.48;;;5.80;;
46090;SDS011;31826;53.572;10.170;2023-05-10T12:23:37;11.75;;;5.63;;
46090;SDS011;31826;53.572;10.170;2023-05-10T12:26:04;11.13;;;6.17;;
46090;SDS011;31826;53.572;10.170;2023-05-10T12:28:30;10.82;;;6.53;;
46090;SDS011;31826;53.572;10.170;2023-05-10T12:30:57;11.67;;;6.10;;
46090;SDS011;31826;53.572;10.170;2023-05-10T12:33:23;12.07;;;6.55;;
46090;SDS011;31826;53.572;10.170;2023-05-10T12:35:52;13.68;;;6.07;;
46090;SDS011;31826;53.572;10.170;2023-05-10T12:38:25;12.43;;;6.47;;
46090;SDS011;31826;53.572;10.170;2023-05-10T12:40:55;14.23;;;6.78;;
46090;SDS011;31826;53.572;10.170;2023-05-10T12:43:25;12.93;;;6.55;;
46090;SDS011;31826;53.572;10.170;2023-05-10T12:45:50;11.13;;;5.60;;
46090;SDS011;31826;53.572;10.170;2023-05-10T12:48:16;13.07;;;6.00;;
46090;SDS011;31826;53.572;10.170;2023-05-10T12:50:42;9.57;;;5.70;;
46090;SDS011;31826;53.572;10.170;2023-05-10T12:53:07;12.10;;;5.60;;
46090;SDS011;31826;53.572;10.170;2023-05-10T12:55:33;9.70;;;5.15;;
46090;SDS011;31826;53.572;10.170;2023-05-10T12:57:59;10.82;;;5.53;;
46090;SDS011;31826;53.572;10.170;2023-05-10T13:00:25;10.65;;;5.43;;
46090;SDS011;31826;53.572;10.170;2023-05-10T13:02:50;9.68;;;4.80;;
46090;SDS011;31826;53.572;10.170;2023-05-10T13:05:17;7.10;;;4.05;;
46090;SDS011;31826;53.572;10.170;2023-05-10T13:07:42;10.23;;;5.18;;
46090;SDS011;31826;53.572;10.170;2023-05-10T13:10:09;9.15;;;4.95;;
46090;SDS011;31826;53.572;10.170;2023-05-10T13:12:35;8.98;;;4.63;;
46090;SDS011;31826;53.572;10.170;2023-05-10T13:15:01;9.30;;;5.10;;
46090;SDS011;31826;53.572;10.170;2023-05-10T13:17:28;8.52;;;4.63;;
46090;SDS011;31826;53.572;10.170;2023-05-10T13:19:53;8.65;;;4.32;;
46090;SDS011;31826;53.572;10.170;2023-05-10T13:22:19;10.40;;;5.00;;
46090;SDS011;31826;53.572;10.170;2023-05-10T13:24:45;10.40;;;5.20;;
46090;SDS011;31826;53.572;10.170;2023-05-10T13:27:11;9.93;;;5.13;;
46090;SDS011;31826;53.572;10.170;2023-05-10T13:29:37;11.50;;;5.73;;
46090;SDS011;31826;53.572;10.170;2023-05-10T13:32:02;11.53;;;5.87;;
46090;SDS011;31826;53.572;10.170;2023-05-10T13:34:28;10.33;;;5.73;;
46090;SDS011;31826;53.572;10.170;2023-05-10T13:36:54;11.00;;;6.03;;
46090;SDS011;31826;53.572;10.170;2023-05-10T13:39:21;10.70;;;5.90;;
46090;SDS011;31826;53.572;10.170;2023-05-10T13:41:47;10.02;;;5.28;;
46090;SDS011;31826;53.572;10.170;2023-05-10T13:44:13;8.27;;;4.93;;
46090;SDS011;31826;53.572;10.170;2023-05-10T13:46:42;11.48;;;5.68;;
46090;SDS011;31826;53.572;10.170;2023-05-10T13:49:08;11.07;;;5.72;;
46090;SDS011;31826;53.572;10.170;2023-05-10T13:51:34;10.07;;;5.32;;
46090;SDS011;31826;53.572;10.170;2023-05-10T13:54:01;10.23;;;4.80;;
46090;SDS011;31826;53.572;10.170;2023-05-10T13:56:27;9.20;;;4.97;;
46090;SDS011;31826;53.572;10.170;2023-05-10T13:58:53;10.30;;;5.03;;
46090;SDS011;31826;53.572;10.170;2023-05-10T14:01:19;8.53;;;4.90;;
46090;SDS011;31826;53.572;10.170;2023-05-10T14:03:44;8.23;;;4.40;;
46090;SDS011;31826;53.572;10.170;2023-05-10T14:06:10;7.93;;;4.38;;
46090;SDS011;31826;53.572;10.170;2023-05-10T14:08:36;9.02;;;4.20;;
46090;SDS011;31826;53.572;10.170;2023-05-10T14:11:01;7.95;;;4.18;;
46090;SDS011;31826;53.572;10.170;2023-05-10T14:13:27;8.40;;;4.20;;
46090;SDS011;31826;53.572;10.170;2023-05-10T14:15:53;6.85;;;3.90;;
46090;SDS011;31826;53.572;10.170;2023-05-10T14:18:19;6.68;;;3.83;;
46090;SDS011;31826;53.572;10.170;2023-05-10T14:20:45;8.40;;;4.20;;
46090;SDS011;31826;53.572;10.170;2023-05-10T14:23:11;8.23;;;4.30;;
46090;SDS011;31826;53.572;10.170;2023-05-10T14:25:38;8.17;;;4.10;;
46090;SDS011;31826;53.572;10.170;2023-05-10T14:28:06;7.13;;;3.78;;
46090;SDS011;31826;53.572;10.170;2023-05-10T14:30:32;7.13;;;4.32;;
46090;SDS011;31826;53.572;10.170;2023-05-10T14:32:59;8.65;;;4.20;;
46090;SDS011;31826;53.572;10.170;2023-05-10T14:35:26;8.48;;;4.38;;
46090;SDS011;31826;53.572;10.170;2023-05-10T14:37:52;8.55;;;4.45;;
46090;SDS011;31826;53.572;10.170;2023-05-10T14:40:18;8.35;;;4.57;;
46090;SDS011;31826;53.572;10.170;2023-05-10T14:42:44;8.25;;;4.68;;
46090;SDS011;31826;53.572;10.170;2023-05-10T14:45:10;9.13;;;4.82;;
46090;SDS011;31826;53.572;10.170;2023-05-10T14:47:37;8.60;;;4.80;;
46090;SDS011;31826;53.572;10.170;2023-05-10T14:50:02;7.82;;;4.07;;
46090;SDS011;31826;53.572;10.170;2023-05-10T14:52:28;9.00;;;4.30;;
46090;SDS011;31826;53.572;10.170;2023-05-10T14:54:54;9.05;;;4.35;;
46090;SDS011;31826;53.572;10.170;2023-05-10T14:57:20;8.80;;;4.53;;
46090;SDS011;31826;53.572;10.170;2023-05-10T14:59:45;8.20;;;4.40;;
46090;SDS011;31826;53.572;10.170;2023-05-10T15:02:11;8.03;;;3.97;;
46090;SDS011;31826;53.572;10.170;2023-05-10T15:04:37;6.63;;;3.97;;
46090;SDS011;31826;53.572;10.170;2023-05-10T15:07:03;7.93;;;3.93;;
46090;SDS011;31826;53.572;10.170;2023-05-10T15:09:29;8.82;;;4.57;;